Terminal Aerodrome Forecast
Issued by NWS

Home | Current Version | Previous Version | Text Only | Print | Product List | Glossary On
Versions: 1 2 3 4 5 6 7 8 9 10 11 12 13 14 15 16 17 18 19 20
254
FTUS41 KGYX 041809 AAA
TAFHIE
TAF AMD
KHIE 041809Z 0418/0518 07006KT P6SM -RA BKN017 OVC026
     FM042300 13003KT 4SM -RA BR OVC015
     FM050100 11004KT 6SM -RA BR OVC015
     FM050700 10003KT P6SM OVC007 PROB30 0507/0509 6SM -RA OVC007
     FM051000 VRB04KT P6SM OVC015=

USA.gov is the U.S. government's official web portal to all federal, state and local government web resources and services.